createdAt,value
2023-05-10T00:16:03.354Z,1093
2023-05-10T00:35:56.286Z,1085
2023-05-10T00:55:56.478Z,1103
2023-05-10T01:35:56.445Z,1098
2023-05-10T01:56:03.551Z,1106
2023-05-10T02:15:56.537Z,1097
2023-05-10T02:35:56.584Z,1093
2023-05-10T02:55:56.670Z,1089
2023-05-10T03:16:03.862Z,1090
2023-05-10T03:35:56.752Z,1090
2023-05-10T03:55:56.799Z,1084
2023-05-10T04:15:56.891Z,1080
2023-05-10T04:35:56.885Z,1081
2023-05-10T04:55:56.920Z,1065
2023-05-10T05:15:56.992Z,1050
2023-05-10T05:35:57.046Z,1031
2023-05-10T05:55:57.076Z,1021
2023-05-10T06:15:57.200Z,1018
2023-05-10T06:35:57.180Z,1008
2023-05-10T06:55:57.232Z,999
2023-05-10T07:15:57.297Z,1002
2023-05-10T07:35:57.304Z,1000
2023-05-10T07:55:57.365Z,996
2023-05-10T08:15:57.452Z,993
2023-05-10T08:35:57.489Z,992
2023-05-10T08:55:57.496Z,991
2023-05-10T09:16:00.321Z,986
2023-05-10T09:35:57.626Z,977
2023-05-10T10:15:57.721Z,964
2023-05-10T10:35:57.737Z,960
2023-05-10T10:55:57.783Z,966
2023-05-10T11:15:57.849Z,962
2023-05-10T11:35:57.897Z,959
2023-05-10T11:55:57.960Z,950
2023-05-10T12:15:58.010Z,952
2023-05-10T12:35:58.025Z,961
2023-05-10T12:55:58.068Z,954
2023-05-10T13:15:58.096Z,950
2023-05-10T13:35:58.158Z,947
2023-05-10T13:55:58.209Z,942
2023-05-10T14:15:58.266Z,942
2023-05-10T14:35:58.327Z,939
2023-05-10T14:55:58.337Z,945
2023-05-10T15:15:58.414Z,940
2023-05-10T15:35:58.445Z,934
2023-05-10T15:55:58.488Z,935
2023-05-10T16:15:58.575Z,933
2023-05-10T16:35:58.591Z,931
2023-05-10T16:55:58.650Z,929
2023-05-10T17:15:58.765Z,919
2023-05-10T17:35:58.739Z,918
2023-05-10T17:55:58.811Z,919
2023-05-10T18:15:58.807Z,944
2023-05-10T18:35:58.843Z,1012
2023-05-10T18:55:58.913Z,1048
2023-05-10T19:15:59.012Z,1110
2023-05-10T19:35:59.037Z,1167
2023-05-10T19:55:59.075Z,1167
2023-05-10T20:15:59.100Z,1152
2023-05-10T20:35:59.162Z,1065
2023-05-10T20:55:59.217Z,1121
2023-05-10T21:15:59.278Z,1105
2023-05-10T21:35:59.335Z,1089
2023-05-10T21:55:59.333Z,1084
2023-05-10T22:15:59.428Z,1068
2023-05-10T22:35:59.457Z,1068
2023-05-10T22:55:59.486Z,1088
2023-05-10T23:15:59.528Z,1088
2023-05-10T23:35:59.585Z,1097
2023-05-10T23:55:59.661Z,1075
